createdAt,value
2024-03-16T00:05:20.161Z,1.37
2024-03-16T00:15:23.418Z,1.37
2024-03-16T00:25:27.476Z,1.53
2024-03-16T00:35:31.161Z,2.50
2024-03-16T00:45:34.356Z,0.57
2024-03-16T00:55:39.102Z,0.93
2024-03-16T01:05:42.242Z,1.07
2024-03-16T01:15:45.816Z,0.83
2024-03-16T01:25:49.139Z,4.00
2024-03-16T01:35:53.041Z,2.47
2024-03-16T01:45:56.198Z,3.53
2024-03-16T01:55:59.332Z,0.87
2024-03-16T02:06:02.394Z,2.50
2024-03-16T02:16:06.060Z,2.63
2024-03-16T02:26:09.625Z,1.63
2024-03-16T02:36:12.922Z,5.50
2024-03-16T02:46:16.211Z,5.30
2024-03-16T02:56:20.280Z,2.87
2024-03-16T03:06:23.908Z,2.67
2024-03-16T03:16:27.091Z,2.13
2024-03-16T03:26:31.692Z,2.67
2024-03-16T03:36:35.306Z,3.23
2024-03-16T03:46:51.317Z,2.50
2024-03-16T03:56:54.865Z,6.27
2024-03-16T04:06:58.095Z,1.97
2024-03-16T04:17:01.212Z,4.97
2024-03-16T04:27:04.622Z,4.63
2024-03-16T04:37:08.044Z,2.47
2024-03-16T04:47:11.283Z,2.60
2024-03-16T04:57:14.592Z,1.63
2024-03-16T05:07:18.073Z,4.73
2024-03-16T05:17:21.179Z,4.03
2024-03-16T05:27:24.224Z,5.43
2024-03-16T05:37:31.404Z,3.37
2024-03-16T05:47:35.112Z,3.43
2024-03-16T05:57:38.264Z,3.60
2024-03-16T06:07:43.954Z,2.23
2024-03-16T06:17:47.501Z,6.33
2024-03-16T06:27:51.604Z,3.57
2024-03-16T06:37:54.659Z,5.07
2024-03-16T06:47:58.724Z,1.80
2024-03-16T06:58:01.836Z,1.33
2024-03-16T07:08:05.635Z,6.53
2024-03-16T07:18:10.059Z,6.53
2024-03-16T07:28:15.068Z,5.30
2024-03-16T07:38:18.792Z,5.73
2024-03-16T07:48:22.898Z,6.90
2024-03-16T07:58:25.915Z,8.03
2024-03-16T08:08:29.189Z,8.00
2024-03-16T08:18:32.272Z,9.97
2024-03-16T08:28:35.664Z,7.00
2024-03-16T08:38:38.725Z,7.27
2024-03-16T08:48:41.936Z,6.10
2024-03-16T08:58:47.484Z,4.90
2024-03-16T09:08:51.972Z,4.57
2024-03-16T09:18:55.447Z,4.63
2024-03-16T09:28:58.633Z,4.87
2024-03-16T09:39:01.784Z,4.10
